METAR stanice u blizini

 

LYBE - Beograd / Surčin, Srbija
Ažurirano: 11/12/2018 06:30
Vedro
Vedro
 Pravac vetra ZJZ
Vetar: ZJZ 9 km/h
Temperatura: -1°C
Osećaj hladnoće: -4°C
Tačka rose: -2°C
Vlažnost: 93%
Pritisak: 1016 hPa
Pregled: Vedro
Vidljivost: greater than 10 km
2018/12/11 05:30 LYBE 110530Z 25005KT CAVOK M01/M02 Q1016 NOSIG
LYBT - Beograd / Batajnica, Srbija
Ažurirano: 11/12/2018 06:30
Vedro
Vedro
 Pravac vetra JZ
Vetar: JZ 6 km/h
Temperatura: -3°C
Tačka rose: -4°C
Vlažnost: 93%
Pritisak: 1016 hPa
Pregled: Vedro
Vidljivost: greater than 10 km
2018/12/11 05:30 LYBT 110530Z 22003KT CAVOK M03/M04 Q1016 NOSIG
LYVR - Vršac, Srbija
Ažurirano: 11/12/2018 06:30
Vedro
Vedro
 Pravac vetra SSI
Vetar: SSI 6 km/h
Temperatura: -2°C
Tačka rose: -4°C
Vlažnost: 86%
Pritisak: 1016 hPa
Pregled: Vedro
Vidljivost: greater than 10 km
2018/12/11 05:30 LYVR 110530Z 03003KT 360V060 CAVOK M02/M04 Q1016 NOSIG
 
LYKV - Lađevci, Srbija
Ažurirano: 11/12/2018 06:30
Partly Cloudy
Partly Cloudy
 Pravac vetra varies
Vetar: varies 4 km/h
Temperatura: 1°C
Tačka rose: 1°C
Vlažnost: 100%
Pritisak: 1016 hPa
Oblaci: Partly Cloudy
Vidljivost: 10 km
Cloud details: Partly Cloudy 1524 m
2018/12/11 05:30 LYKV 110530Z VRB02KT 9999 SCT050 01/01 Q1016 NOSIG
LYNI - Niš, Srbija
Ažurirano: 11/12/2018 06:30
Slaba kiša, Pretežno oblačno
Slaba kiša, Pretežno oblačno
 Pravac vetra ZSZ
Vetar: ZSZ 13 km/h
Temperatura: 2°C
Osećaj hladnoće: -1°C
Tačka rose: -1°C
Vlažnost: 81%
Pritisak: 1015 hPa
Pregled: Light Rain
Oblaci: Mostly Cloudy
Vidljivost: 10 km
Cloud details: Partly Cloudy 518 m
Mostly Cloudy 762 m
2018/12/11 05:30 LYNI 110530Z 30007KT 9999 -RA SCT017 BKN025 02/M01 Q1015 NOSIG
BKPR - Priština, Srbija
Ažurirano: 11/12/2018 06:30
Few Clouds
Few Clouds
 Pravac vetra SZ
Vetar: SZ 11 km/h
Temperatura: 0°C
Osećaj hladnoće: -4°C
Tačka rose: -6°C
Vlažnost: 64%
Pritisak: 1014 hPa
Oblaci: Few Clouds
Vidljivost: 10 km
Cloud details: Few Clouds 2134 m
2018/12/11 05:30 BKPR 110530Z 32006KT 9999 FEW070 00/M06 Q1014 NOSIG RMK 17010095
 
LHPP - Pecs / Pogany, Hungary
Ažurirano: 11/12/2018 06:15
Vedro
Vedro
 Pravac vetra SZ
Vetar: SZ 7 km/h
Temperatura: 1°C
Osećaj hladnoće: -2°C
Tačka rose: -3°C
Vlažnost: 75%
Pritisak: 1016 hPa
Pregled: Vedro
Vidljivost: greater than 10 km
2018/12/11 05:15 LHPP 110515Z 31004KT CAVOK 01/M03 Q1016
LHUD - Szeged, Hungary
Ažurirano: 11/12/2018 06:15
Vedro
Vedro
 Pravac vetra ZSZ
Vetar: ZSZ 11 km/h
Temperatura: 0°C
Osećaj hladnoće: -4°C
Tačka rose: -3°C
Vlažnost: 80%
Pritisak: 1015 hPa
Pregled: Vedro
Vidljivost: greater than 10 km
2018/12/11 05:15 LHUD 110515Z 30006KT CAVOK M00/M03 Q1015
LRTR - Timisoara, Romania
Ažurirano: 11/12/2018 06:30
Vedro
Vedro
 Pravac vetra JI
Vetar: JI 9 km/h
Temperatura: -6°C
Osećaj hladnoće: -11°C
Tačka rose: -6°C
Vlažnost: 100%
Pritisak: 1014 hPa
Pregled: Vedro
Vidljivost: greater than 10 km
2018/12/11 05:30 LRTR 110530Z 13005KT CAVOK M06/M06 Q1014 NOSIG
 
LRCV - Craiova, Romania
Ažurirano: 11/12/2018 06:30
Mostly Cloudy
Mostly Cloudy
 Pravac vetra Z
Vetar: Z 13 km/h
Temperatura: 2°C
Osećaj hladnoće: -1°C
Tačka rose: -1°C
Vlažnost: 81%
Pritisak: 1009 hPa
Oblaci: Mostly Cloudy
Vidljivost: 10 km
Cloud details: Mostly Cloudy 3048 m
2018/12/11 05:30 LRCV 110530Z AUTO 27007KT 9999 BKN100/// 02/M01 Q1009
LBSF - Sofia, Bulgaria
Ažurirano: 11/12/2018 06:30
Few Clouds
Few Clouds
 Pravac vetra Z
Vetar: Z 15 km/h
Temperatura: 0°C
Osećaj hladnoće: -4°C
Tačka rose: -4°C
Vlažnost: 75%
Pritisak: 1012 hPa
Oblaci: Few Clouds
Vidljivost: 10 km
Cloud details: Few Clouds 1676 m
2018/12/11 05:30 LBSF 110530Z 28008KT 250V310 9999 FEW055 00/M04 Q1012 R88/CLRD// NOSIG
LWSK - Skoplje, Makedonija
Ažurirano: 11/12/2018 06:30
Partly Cloudy
Partly Cloudy
 Pravac vetra ISI
Vetar: ISI 4 km/h
Temperatura: -1°C
Tačka rose: -3°C
Vlažnost: 86%
Pritisak: 1015 hPa
Oblaci: Partly Cloudy
Vidljivost: 10 km
Cloud details: Partly Cloudy 1920 m
2018/12/11 05:30 LWSK 110530Z 07002KT 9999 SCT063 M01/M03 Q1015 NOSIG
 
LYPG - Podgorica, Crna Gora
Ažurirano: 11/12/2018 06:30
Few Clouds
Few Clouds
 Pravac vetra SSZ
Vetar: SSZ 17 km/h
Temperatura: 5°C
Osećaj hladnoće: 2°C
Tačka rose: -6°C
Vlažnost: 45%
Pritisak: 1015 hPa
Oblaci: Few Clouds
Vidljivost: 10 km
Cloud details: Few Clouds 2743 m
2018/12/11 05:30 LYPG 110530Z 33009KT 9999 FEW090 05/M06 Q1015 NOSIG
LQSA - Sarajevo, Bosna i Hercegovina
Ažurirano: 11/12/2018 06:30
Mist, Oblačno
Mist, Oblačno
 Pravac vetra varies
Vetar: varies 4 km/h
Temperatura: -1°C
Tačka rose: -1°C
Vlažnost: 100%
Pritisak: 1016 hPa
Pregled: Mist
Oblaci: Oblačno
Vidljivost: 4 km
Cloud details: Oblačno 122 m
2018/12/11 05:30 LQSA 110530Z VRB02KT 4000 BR OVC004 M01/M01 Q1016 NOSIG
LDOS - Osijek, Hrvatksa
Ažurirano: 11/12/2018 06:30
Partly Cloudy
Partly Cloudy
 Pravac vetra Z
Vetar: Z 11 km/h
Temperatura: 0°C
Osećaj hladnoće: -4°C
Tačka rose: -2°C
Vlažnost: 87%
Pritisak: 1016 hPa
Oblaci: Partly Cloudy
Vidljivost: 10 km
Cloud details: Partly Cloudy 914 m
2018/12/11 05:30 LDOS 110530Z 26006KT 240V330 9999 SCT030 M00/M02 Q1016